April Moran — WDJ2163 — position and weather

sailwx.info

Track history (hours):
 
Tides and Currents Weather Stations Pressure Air Temp Water Temp Dewpoint Dewpoint Depression Visibility Wind Speed Wind Dir Waves Ship Positions

April Moran

Owner: Moran Towing Corporation, New Canaan, CT. More information available from US FCC via Universal Licensing System and Coast Guard Vessel Documentation Center.

Last reported at 2017-Nov-19 01:00 UTC. Time now 2017-Nov-19 01:18 UTC.
Position N 39°16' W 076°34'.

Length 29 m; draft 3.9 m.

Type: Tug. MMSI: 367139510.

Date/timePositionNaut miles runAvg speedWind from/ knotsBaromVisibWave heightAir tempDewpointWater temp
2017-Nov-19 01:00N 39°16' W 076°34'0 0.0
2017-Nov-19 00:30N 39°16' W 076°34'2 3.6
2017-Nov-19 00:00N 39°15' W 076°32'2 3.3
2017-Nov-18 23:30N 39°14' W 076°32'2 3.2
2017-Nov-18 23:00N 39°15' W 076°34'1 2.4
2017-Nov-18 22:30N 39°16' W 076°34'0 0.0
2017-Nov-18 22:00N 39°16' W 076°34'0 0.0
2017-Nov-18 21:30N 39°16' W 076°34'0 0.0
2017-Nov-18 21:00N 39°16' W 076°34'0 0.0
2017-Nov-18 20:30N 39°16' W 076°34'0 0.0
2017-Nov-18 20:00N 39°16' W 076°34'0 0.0
2017-Nov-18 19:30N 39°16' W 076°34'0 0.0
2017-Nov-18 19:00N 39°16' W 076°34'0 0.0
2017-Nov-18 18:30N 39°16' W 076°34'0 0.0
2017-Nov-18 18:00N 39°16' W 076°34'0 0.0
2017-Nov-18 17:30N 39°16' W 076°34'0 0.0
2017-Nov-18 17:00N 39°16' W 076°34'0 0.0
2017-Nov-18 16:30N 39°16' W 076°34'0 0.5
2017-Nov-18 16:00N 39°16' W 076°34'0 1.0
2017-Nov-18 15:31N 39°15' W 076°34'2 3.5
2017-Nov-18 15:00N 39°14' W 076°33'2 3.0
2017-Nov-18 14:30N 39°15' W 076°34'1 1.7
2017-Nov-18 14:00N 39°16' W 076°34'0 0.0
2017-Nov-18 13:30N 39°16' W 076°34'0 0.0
2017-Nov-18 13:00N 39°16' W 076°34'0 0.0
2017-Nov-18 12:30N 39°16' W 076°34'0 0.0
2017-Nov-18 12:00N 39°16' W 076°34'0 0.0
2017-Nov-18 11:30N 39°16' W 076°34'1 1.8
2017-Nov-18 11:00N 39°15' W 076°35'1 1.3
2017-Nov-18 10:30N 39°15' W 076°34'0 0.6
2017-Nov-18 10:00N 39°15' W 076°34'0 0.9
2017-Nov-18 09:30N 39°15' W 076°34'0 0.0
2017-Nov-18 09:00N 39°15' W 076°34'0 0.0
2017-Nov-18 08:30N 39°15' W 076°34'0 0.0
2017-Nov-18 08:00N 39°15' W 076°34'0 0.0
2017-Nov-18 07:30N 39°15' W 076°34'1 1.6
2017-Nov-18 07:00N 39°15' W 076°35'2 3.4
2017-Nov-18 06:30N 39°14' W 076°33'1 1.1
2017-Nov-18 06:00N 39°14' W 076°32'0 0.0
2017-Nov-18 05:30N 39°14' W 076°32'0 0.0
2017-Nov-18 05:00N 39°14' W 076°32'0 0.0
2017-Nov-18 04:30N 39°14' W 076°32'0 0.7
2017-Nov-18 04:00N 39°14' W 076°32'3 4.8
2017-Nov-18 03:27N 39°13' W 076°35'0 0.1
2017-Nov-18 02:59N 39°13' W 076°35'2 4.0
2017-Nov-18 02:28N 39°13' W 076°32'0 0.5
2017-Nov-18 02:00N 39°13' W 076°32'1 2.6
2017-Nov-18 01:30N 39°15' W 076°32'0 0.0
2017-Nov-18 01:00N 39°15' W 076°32'0 0.0
2017-Nov-18 00:30N 39°15' W 076°32'0 0.8
2017-Nov-18 00:01N 39°15' W 076°32'4 7.3
2017-Nov-17 23:30N 39°12' W 076°30'1 2.2
2017-Nov-17 22:59N 39°13' W 076°29'0 0.2
2017-Nov-17 22:30N 39°13' W 076°29'0 0.1
2017-Nov-17 21:58N 39°13' W 076°29'0 0.0
2017-Nov-17 21:19N 39°13' W 076°29'0 0.0
2017-Nov-17 20:56N 39°13' W 076°29'1 1.2
2017-Nov-17 20:26N 39°12' W 076°29'1 1.7
2017-Nov-17 20:00N 39°11' W 076°29'1 2.1
2017-Nov-17 19:29N 39°11' W 076°27'3 5.0
2017-Nov-17 18:58N 39°12' W 076°30'4 9.5
2017-Nov-17 18:30N 39°15' W 076°34'1 1.1
2017-Nov-17 18:00N 39°16' W 076°34'0 0.0
2017-Nov-17 17:30N 39°16' W 076°34'0 0.0
2017-Nov-17 17:00N 39°16' W 076°34'0 0.0
2017-Nov-17 16:30N 39°16' W 076°34'0 0.0
2017-Nov-17 16:00N 39°16' W 076°34'0 0.0
2017-Nov-17 15:30N 39°16' W 076°34'0 0.0
2017-Nov-17 15:00N 39°16' W 076°34'0 0.0
2017-Nov-17 14:30N 39°16' W 076°34'0 0.0
2017-Nov-17 14:00N 39°16' W 076°34'0 0.0
2017-Nov-17 13:30N 39°16' W 076°34'0 0.0
2017-Nov-17 13:00N 39°16' W 076°34'0 0.0
2017-Nov-17 12:30N 39°16' W 076°34'0 0.0
2017-Nov-17 12:00N 39°16' W 076°34'0 0.0
2017-Nov-17 11:30N 39°16' W 076°34'0 0.0
2017-Nov-17 11:00N 39°16' W 076°34'0 0.0
2017-Nov-17 10:30N 39°16' W 076°34'0 0.2
2017-Nov-17 10:00N 39°16' W 076°34'0 0.2
2017-Nov-17 09:30N 39°16' W 076°34'0 0.0
2017-Nov-17 09:00N 39°16' W 076°34'2 4.1
2017-Nov-17 08:30N 39°15' W 076°32'1 1.1
2017-Nov-17 08:00N 39°14' W 076°32'0 0.0
2017-Nov-17 07:30N 39°14' W 076°32'0 0.7
2017-Nov-17 07:00N 39°14' W 076°32'0 0.0
2017-Nov-17 06:30N 39°14' W 076°32'0 0.7
2017-Nov-17 05:52N 39°15' W 076°32'0 1.1
2017-Nov-17 05:30N 39°15' W 076°33'0 0.7
2017-Nov-17 05:00N 39°15' W 076°32'1 1.5
2017-Nov-17 04:30N 39°15' W 076°31'1 1.3
2017-Nov-17 04:00N 39°14' W 076°32'1 1.9
2017-Nov-17 03:30N 39°15' W 076°32'0 0.1
2017-Nov-17 03:00N 39°15' W 076°32'0 0.0
2017-Nov-17 02:29N 39°15' W 076°32'0 0.0
2017-Nov-17 02:00N 39°15' W 076°32'0 0.0
2017-Nov-17 01:30N 39°15' W 076°32'0 0.1
2017-Nov-17 01:01N 39°15' W 076°32'2 4.0
2017-Nov-17 00:30N 39°13' W 076°32'2 3.8
2017-Nov-17 00:00N 39°15' W 076°33'1 2.2
2017-Nov-16 23:31N 39°15' W 076°35'1 1.7
2017-Nov-16 23:00N 39°15' W 076°34'1 1.6
2017-Nov-16 22:30N 39°15' W 076°34'1 1.3
2017-Nov-16 22:00N 39°16' W 076°34'0 0.0
2017-Nov-16 21:30N 39°16' W 076°34'0 0.0
2017-Nov-16 21:00N 39°16' W 076°34'0 0.0
2017-Nov-16 20:30N 39°16' W 076°34'0 0.0
2017-Nov-16 20:00N 39°16' W 076°34'1 2.1
2017-Nov-16 19:30N 39°15' W 076°33'1 1.5
2017-Nov-16 19:00N 39°15' W 076°32'1 1.8
2017-Nov-16 18:24N 39°15' W 076°33'1 3.0
2017-Nov-16 18:00N 39°15' W 076°35'0 0.1
2017-Nov-16 17:30N 39°15' W 076°35'1 2.5
2017-Nov-16 17:00N 39°15' W 076°33'1 1.1
2017-Nov-16 16:30N 39°15' W 076°33'0 1.0
2017-Nov-16 16:00N 39°15' W 076°33'2 3.1
2017-Nov-16 15:30N 39°13' W 076°32'3 6.6
2017-Nov-16 15:00N 39°16' W 076°34'0 0.0
2017-Nov-16 14:30N 39°16' W 076°34'0 0.0
2017-Nov-16 14:00N 39°16' W 076°34'0 0.0
2017-Nov-16 13:30N 39°16' W 076°34'0 0.0
2017-Nov-16 13:00N 39°16' W 076°34'0 0.0
2017-Nov-16 12:30N 39°16' W 076°34'0 0.0
2017-Nov-16 12:00N 39°16' W 076°34'0 0.0
2017-Nov-16 11:30N 39°16' W 076°34'0 0.0
2017-Nov-16 11:00N 39°16' W 076°34'0 0.0
2017-Nov-16 10:30N 39°16' W 076°34'0 0.0
2017-Nov-16 10:00N 39°16' W 076°34'0 0.0
2017-Nov-16 09:30N 39°16' W 076°34'0 0.0
2017-Nov-16 09:00N 39°16' W 076°34'1 2.6
2017-Nov-16 08:30N 39°15' W 076°33'1 1.9
2017-Nov-16 08:00N 39°14' W 076°33'1 2.2
2017-Nov-16 07:30N 39°15' W 076°34'0 0.7
2017-Nov-16 07:01N 39°15' W 076°34'1 2.5
2017-Nov-16 06:30N 39°14' W 076°32'0 0.1
2017-Nov-16 06:00N 39°14' W 076°33'2 4.0
2017-Nov-16 05:30N 39°15' W 076°34'0 0.0
2017-Nov-16 05:00N 39°15' W 076°34'0 0.0
2017-Nov-16 04:30N 39°15' W 076°34'0 0.0
2017-Nov-16 04:00N 39°15' W 076°34'0 0.0
2017-Nov-16 03:28N 39°15' W 076°34'0 0.0
2017-Nov-16 03:00N 39°15' W 076°34'1 1.1
2017-Nov-16 02:30N 39°15' W 076°33'0 0.1
2017-Nov-16 02:00N 39°15' W 076°33'1 2.2
2017-Nov-16 01:31N 39°16' W 076°34'0 0.2
2017-Nov-16 01:00N 39°16' W 076°34'0 0.0
2017-Nov-16 00:30N 39°16' W 076°34'0 0.0
2017-Nov-16 00:00N 39°16' W 076°34'0 0.0
2017-Nov-15 23:30N 39°16' W 076°34'0 0.0
2017-Nov-15 23:00N 39°16' W 076°34'0 0.0
2017-Nov-15 22:30N 39°16' W 076°34'0 0.0
2017-Nov-15 22:00N 39°16' W 076°34'0 0.0
2017-Nov-15 21:30N 39°16' W 076°34'0 0.0
2017-Nov-15 21:00N 39°16' W 076°34'0 0.0
2017-Nov-15 20:30N 39°16' W 076°34'0 0.0
2017-Nov-15 20:00N 39°16' W 076°34'1 1.0
2017-Nov-15 19:30N 39°16' W 076°35'1 1.0
2017-Nov-15 19:00N 39°16' W 076°34'0 0.0
2017-Nov-15 18:30N 39°16' W 076°34'0 0.0
2017-Nov-15 18:00N 39°16' W 076°34'0 0.0
2017-Nov-15 17:30N 39°16' W 076°34'0 0.0
2017-Nov-15 17:01N 39°16' W 076°34'1 2.4
2017-Nov-15 16:31N 39°15' W 076°33'2 4.0
2017-Nov-15 16:00N 39°13' W 076°32'2 4.3
2017-Nov-15 15:30N 39°15' W 076°34'1 1.8
2017-Nov-15 15:00N 39°16' W 076°34'0 0.0
2017-Nov-15 14:30N 39°16' W 076°34'0 0.0
2017-Nov-15 14:00N 39°16' W 076°34'0 0.0
2017-Nov-15 13:31N 39°16' W 076°34'0 0.0
2017-Nov-15 13:00N 39°16' W 076°34'0 0.0
2017-Nov-15 12:31N 39°16' W 076°34'0 0.0
2017-Nov-15 12:00N 39°16' W 076°34'0 0.0
2017-Nov-15 11:30N 39°16' W 076°34'0 0.0
2017-Nov-15 11:00N 39°16' W 076°34'0 0.0
2017-Nov-15 10:30N 39°16' W 076°34'0 0.0
2017-Nov-15 10:00N 39°16' W 076°34'0 0.0
2017-Nov-15 09:31N 39°16' W 076°34'0 0.0
2017-Nov-15 09:01N 39°16' W 076°34'0 0.0
2017-Nov-15 08:30N 39°16' W 076°34'0 0.0
2017-Nov-15 08:00N 39°16' W 076°34'0 0.0
2017-Nov-15 07:30N 39°16' W 076°34'0 0.0
2017-Nov-15 07:00N 39°16' W 076°34'0 0.0
2017-Nov-15 06:30N 39°16' W 076°34'0 0.0
2017-Nov-15 06:00N 39°16' W 076°34'0 0.0
2017-Nov-15 05:30N 39°16' W 076°34'0 0.0
2017-Nov-15 05:00N 39°16' W 076°34'0 0.0
2017-Nov-15 04:30N 39°16' W 076°34'0 0.0
2017-Nov-15 04:00N 39°16' W 076°34'0 0.0
2017-Nov-15 03:30N 39°16' W 076°34'0 0.0
2017-Nov-15 03:00N 39°16' W 076°34'0 0.0
2017-Nov-15 02:30N 39°16' W 076°34'0 0.0
2017-Nov-15 02:01N 39°16' W 076°34'0 0.0
2017-Nov-15 01:31N 39°16' W 076°34'0 0.0
2017-Nov-15 01:00N 39°16' W 076°34'1 1.5
2017-Nov-15 00:30N 39°15' W 076°34'1 1.7
2017-Nov-15 00:00N 39°15' W 076°33'0 0.3
2017-Nov-14 23:28N 39°15' W 076°33'2 3.3
2017-Nov-14 23:00N 39°16' W 076°34'0 0.0
2017-Nov-14 22:30N 39°16' W 076°34'0 0.0
2017-Nov-14 22:00N 39°16' W 076°34'0 0.0
2017-Nov-14 21:30N 39°16' W 076°34'0 0.0
2017-Nov-14 21:00N 39°16' W 076°34'0 0.0
2017-Nov-14 20:30N 39°16' W 076°34'0 0.0
2017-Nov-14 20:00N 39°16' W 076°34'0 0.0
2017-Nov-14 19:30N 39°16' W 076°34'0 0.0
2017-Nov-14 19:00N 39°16' W 076°34'0 0.0
2017-Nov-14 18:30N 39°16' W 076°34'0 0.0
2017-Nov-14 18:00N 39°16' W 076°34'0 0.0
2017-Nov-14 17:30N 39°16' W 076°34'0 0.0
2017-Nov-14 17:00N 39°16' W 076°34'0 0.0
2017-Nov-14 16:30N 39°16' W 076°34'0 0.0
2017-Nov-14 16:00N 39°16' W 076°34'0 0.0
2017-Nov-14 15:30N 39°16' W 076°34'0 0.0
2017-Nov-14 15:00N 39°16' W 076°34'0 0.0
2017-Nov-14 14:30N 39°16' W 076°34'0 0.0
2017-Nov-14 14:00N 39°16' W 076°34'1 2.1
2017-Nov-14 13:30N 39°15' W 076°34'2 3.1
2017-Nov-14 12:58N 39°13' W 076°34'0 1.0
2017-Nov-14 12:30N 39°13' W 076°34'0 0.1
2017-Nov-14 11:58N 39°13' W 076°35'1 3.3
2017-Nov-14 11:30N 39°14' W 076°33'1 2.5
2017-Nov-14 11:00N 39°15' W 076°33'2 3.1
2017-Nov-14 10:26N 39°14' W 076°32'0 0.8
2017-Nov-14 10:00N 39°13' W 076°32'2 3.7
2017-Nov-14 09:30N 39°15' W 076°34'1 2.4
2017-Nov-14 09:01N 39°16' W 076°34'0 0.0
2017-Nov-14 08:31N 39°16' W 076°34'0 0.0
2017-Nov-14 08:01N 39°16' W 076°34'0 0.0
2017-Nov-14 07:30N 39°16' W 076°34'0 0.0
2017-Nov-14 07:01N 39°16' W 076°34'0 0.0
2017-Nov-14 06:30N 39°16' W 076°34'0 0.0
2017-Nov-14 06:01N 39°16' W 076°34'0 0.0
2017-Nov-14 05:31N 39°16' W 076°34'0 0.0
2017-Nov-14 05:01N 39°16' W 076°34'0 0.0
2017-Nov-14 04:30N 39°16' W 076°34'0 0.0
2017-Nov-14 04:01N 39°16' W 076°34'0 0.0
2017-Nov-14 03:31N 39°16' W 076°34'0 0.0
2017-Nov-14 03:00N 39°16' W 076°34'0 0.0
2017-Nov-14 02:30N 39°16' W 076°34'0 0.0
2017-Nov-14 02:01N 39°16' W 076°34'0 0.0
2017-Nov-14 01:31N 39°16' W 076°34'0 0.0
2017-Nov-14 01:00N 39°16' W 076°34'0 0.0
2017-Nov-14 00:31N 39°16' W 076°34'0 0.0
2017-Nov-14 00:01N 39°16' W 076°34'0 0.0
2017-Nov-13 23:31N 39°16' W 076°34'1 2.8
2017-Nov-13 23:00N 39°15' W 076°34'1 2.8
2017-Nov-13 22:30N 39°16' W 076°34'0 0.0
2017-Nov-13 22:00N 39°16' W 076°34'2 0.1
2017-Nov-13 02:01N 39°14' W 076°32'0 0.8
2017-Nov-13 01:30N 39°14' W 076°32'0 0.0
2017-Nov-13 01:01N 39°14' W 076°32'0 0.0
2017-Nov-13 00:31N 39°14' W 076°32'2 4.6
2017-Nov-13 00:01N 39°16' W 076°34'0 0.2
2017-Nov-12 23:31N 39°16' W 076°34'1 2.2
2017-Nov-12 23:01N 39°15' W 076°34'1 2.8
2017-Nov-12 22:30N 39°16' W 076°34'0 0.0
2017-Nov-12 22:00N 39°16' W 076°34'0 0.0
2017-Nov-12 21:30N 39°16' W 076°34'0 0.0
2017-Nov-12 21:00N 39°16' W 076°34'0 0.0
2017-Nov-12 20:30N 39°16' W 076°34'0 0.0
2017-Nov-12 20:00N 39°16' W 076°34'0 0.0
2017-Nov-12 19:30N 39°16' W 076°34'0 0.0
2017-Nov-12 19:00N 39°16' W 076°34'0 0.8
2017-Nov-12 18:30N 39°16' W 076°34'2 4.4
2017-Nov-12 18:00N 39°14' W 076°32'0 0.5
2017-Nov-12 17:30N 39°14' W 076°32'4 7.0
2017-Nov-12 17:00N 39°17' W 076°36'0 0.1
2017-Nov-12 16:30N 39°17' W 076°36'1 2.4
2017-Nov-12 16:00N 39°16' W 076°34'0 0.0
2017-Nov-12 15:30N 39°16' W 076°34'0 0.0
2017-Nov-12 15:00N 39°16' W 076°34'0 0.0
2017-Nov-12 14:30N 39°16' W 076°34'3 5.1
2017-Nov-12 14:00N 39°13' W 076°35'0 0.0
2017-Nov-12 13:30N 39°13' W 076°35'1 2.2
2017-Nov-12 13:00N 39°13' W 076°33'1 2.0
2017-Nov-12 12:30N 39°14' W 076°32'0 0.9
2017-Nov-12 12:00N 39°14' W 076°32'0 0.0
2017-Nov-12 11:30N 39°14' W 076°32'1 1.3
2017-Nov-12 11:00N 39°15' W 076°32'2 3.3
2017-Nov-12 10:30N 39°13' W 076°32'2 3.5
2017-Nov-12 10:01N 39°13' W 076°34'0 0.8
2017-Nov-12 09:30N 39°13' W 076°35'0 0.1
2017-Nov-12 08:48N 39°13' W 076°35'2 8.1
2017-Nov-12 08:31N 39°14' W 076°32'0 0.8
2017-Nov-12 08:00N 39°14' W 076°32'1 1.0
2017-Nov-12 07:30N 39°14' W 076°32'2 3.3
2017-Nov-12 07:00N 39°15' W 076°34'0 0.3
2017-Nov-12 06:30N 39°15' W 076°34'1 2.7
2017-Nov-12 06:00N 39°14' W 076°32'0 0.1
2017-Nov-12 05:30N 39°14' W 076°32'1 1.9
2017-Nov-12 05:00N 39°15' W 076°32'2 4.0
2017-Nov-12 04:31N 39°16' W 076°34'0 0.0
2017-Nov-12 04:00N 39°16' W 076°34'0 0.0
2017-Nov-12 03:31N 39°16' W 076°34'0 0.0
2017-Nov-12 03:00N 39°16' W 076°34'0 0.0
2017-Nov-12 02:30N 39°16' W 076°34'0 0.0
2017-Nov-12 02:01N 39°16' W 076°34'0 0.0
2017-Nov-12 01:30N 39°16' W 076°34'3 7.0
2017-Nov-12 01:01N 39°13' W 076°32'2 4.4
2017-Nov-12 00:30N 39°13' W 076°29'0 1.0
2017-Nov-12 00:01N 39°12' W 076°29'0 0.2
2017-Nov-11 23:30N 39°12' W 076°29'0 0.0
2017-Nov-11 23:00N 39°12' W 076°29'0 0.0
2017-Nov-11 22:30N 39°12' W 076°29'4 8.3
2017-Nov-11 22:00N 39°15' W 076°32'1 1.9
2017-Nov-11 21:30N 39°14' W 076°33'2 3.3
2017-Nov-11 21:00N 39°15' W 076°35'1 1.1
2017-Nov-11 20:30N 39°15' W 076°34'0 0.5
2017-Nov-11 20:00N 39°15' W 076°34'0 0.6
2017-Nov-11 19:31N 39°16' W 076°34'0 0.1
2017-Nov-11 19:00N 39°16' W 076°34'0 0.0
2017-Nov-11 18:30N 39°16' W 076°34'2 3.5
2017-Nov-11 18:00N 39°15' W 076°32'1 2.2
2017-Nov-11 17:28N 39°13' W 076°32'3 6.6
2017-Nov-11 17:00N 39°16' W 076°34'0 0.0
2017-Nov-11 16:30N 39°16' W 076°34'0 0.0
2017-Nov-11 16:00N 39°16' W 076°34'0 0.0
2017-Nov-11 15:30N 39°16' W 076°34'0 0.0
2017-Nov-11 15:00N 39°16' W 076°34'0 0.0
2017-Nov-11 14:30N 39°16' W 076°34'0 0.0
2017-Nov-11 14:00N 39°16' W 076°34'0 0.0
2017-Nov-11 13:30N 39°16' W 076°34'0 0.0
2017-Nov-11 13:00N 39°16' W 076°34'0 0.0
2017-Nov-11 12:30N 39°16' W 076°34'0 0.1
2017-Nov-11 12:01N 39°16' W 076°34'1 2.8
2017-Nov-11 11:30N 39°15' W 076°33'2 3.7
2017-Nov-11 11:00N 39°13' W 076°32'1 2.0
2017-Nov-11 10:30N 39°14' W 076°32'1 1.6
2017-Nov-11 10:00N 39°15' W 076°33'0 0.5
2017-Nov-11 09:30N 39°15' W 076°32'0 0.0
2017-Nov-11 09:00N 39°15' W 076°32'0 0.0
2017-Nov-11 08:29N 39°15' W 076°32'0 0.0
2017-Nov-11 08:00N 39°15' W 076°32'0 0.0
2017-Nov-11 07:30N 39°15' W 076°32'2 3.4
2017-Nov-11 07:00N 39°15' W 076°34'0 0.2
2017-Nov-11 06:30N 39°15' W 076°35'1 1.6
2017-Nov-11 06:00N 39°15' W 076°34'0 0.7
2017-Nov-11 05:31N 39°15' W 076°34'0 0.0
2017-Nov-11 05:00N 39°15' W 076°34'1 3.0
2017-Nov-11 04:31N 39°14' W 076°32'1 2.0
2017-Nov-11 04:00N 39°15' W 076°33'1 2.2
2017-Nov-11 03:27N 39°15' W 076°35'0 0.0
2017-Nov-11 03:00N 39°15' W 076°35'1 2.5
2017-Nov-11 02:31N 39°16' W 076°35'0 0.4
2017-Nov-11 02:00N 39°16' W 076°35'1 1.2
2017-Nov-11 01:30N 39°16' W 076°34'0 0.0
2017-Nov-11 01:00N 39°16' W 076°34'0 0.0
2017-Nov-11 00:31N 39°16' W 076°34'0 0.0
2017-Nov-11 00:00N 39°16' W 076°34'0 0.0
2017-Nov-10 23:31N 39°16' W 076°34'0 0.0
2017-Nov-10 23:01N 39°16' W 076°34'0 0.0
2017-Nov-10 22:30N 39°16' W 076°34'0 0.0
2017-Nov-10 22:01N 39°16' W 076°34'0 0.0
2017-Nov-10 21:31N 39°16' W 076°34'0 0.0
2017-Nov-10 21:01N 39°16' W 076°34'0 0.0
2017-Nov-10 20:31N 39°16' W 076°34'0 0.0
2017-Nov-10 20:00N 39°16' W 076°34'0 0.0
2017-Nov-10 19:30N 39°16' W 076°34'1 2.0
2017-Nov-10 19:00N 39°15' W 076°35'0 1.0
2017-Nov-10 18:30N 39°15' W 076°34'2 3.9
2017-Nov-10 18:00N 39°14' W 076°32'0 0.2
2017-Nov-10 17:30N 39°14' W 076°32'0 0.0
2017-Nov-10 17:00N 39°14' W 076°32'2 3.2
2017-Nov-10 16:30N 39°15' W 076°34'0 0.7
2017-Nov-10 16:01N 39°15' W 076°34'2 4.1
2017-Nov-10 15:30N 39°13' W 076°32'0 0.6
2017-Nov-10 15:00N 39°13' W 076°32'2 3.6
2017-Nov-10 14:29N 39°13' W 076°35'0 0.9
2017-Nov-10 14:00N 39°13' W 076°34'2 4.9
2017-Nov-10 13:30N 39°12' W 076°31'2 4.0
2017-Nov-10 13:00N 39°14' W 076°32'0 0.0
2017-Nov-10 12:30N 39°14' W 076°32'0 0.0
2017-Nov-10 12:00N 39°14' W 076°32'1 1.5
2017-Nov-10 11:30N 39°15' W 076°33'1 1.2
2017-Nov-10 11:00N 39°14' W 076°33'0 0.9
2017-Nov-10 10:30N 39°14' W 076°32'0 0.0
2017-Nov-10 10:00N 39°14' W 076°32'0 0.0
2017-Nov-10 09:30N 39°14' W 076°32'0 0.0
2017-Nov-10 09:00N 39°14' W 076°32'0 0.0
2017-Nov-10 08:30N 39°14' W 076°32'0 0.0
2017-Nov-10 07:58N 39°14' W 076°32'0 0.0
2017-Nov-10 07:29N 39°14' W 076°32'0 0.0
2017-Nov-10 06:50N 39°14' W 076°32'0 0.0
2017-Nov-10 06:29N 39°14' W 076°32'0 0.0
2017-Nov-10 05:11N 39°14' W 076°32'1 7.1
2017-Nov-10 05:00N 39°15' W 076°33'0 0.9
2017-Nov-10 04:30N 39°15' W 076°33'1 0.6
2017-Nov-10 03:37N 39°15' W 076°32'0 0.0
2017-Nov-10 03:27N 39°15' W 076°32'0 0.0
2017-Nov-10 03:00N 39°15' W 076°32'0 0.0
2017-Nov-10 02:29N 39°15' W 076°32'4 7.7
2017-Nov-10 01:57N 39°12' W 076°29'0 0.2
2017-Nov-10 01:20N 39°12' W 076°29'1 2.0
2017-Nov-10 01:00N 39°11' W 076°28'3 5.4
2017-Nov-10 00:30N 39°13' W 076°31'4 7.0
2017-Nov-10 00:00N 39°15' W 076°34'0 0.6
2017-Nov-09 23:30N 39°15' W 076°34'1 2.1
2017-Nov-09 23:00N 39°14' W 076°33'1 1.2
2017-Nov-09 22:30N 39°15' W 076°32'0 0.2
2017-Nov-09 22:00N 39°15' W 076°32'0 0.8
2017-Nov-09 21:30N 39°15' W 076°32'0 0.3
2017-Nov-09 21:00N 39°15' W 076°32'0 0.0
2017-Nov-09 20:30N 39°15' W 076°32'2 3.5
2017-Nov-09 20:00N 39°16' W 076°34'0 0.0
2017-Nov-09 19:30N 39°16' W 076°34'0 0.0
2017-Nov-09 19:00N 39°16' W 076°34'0 0.0
2017-Nov-09 18:30N 39°16' W 076°34'0 0.0
2017-Nov-09 18:00N 39°16' W 076°34'0 0.0
2017-Nov-09 17:30N 39°16' W 076°34'0 0.0
2017-Nov-09 17:00N 39°16' W 076°34'0 0.0
2017-Nov-09 16:30N 39°16' W 076°34'0 0.0
2017-Nov-09 16:00N 39°16' W 076°34'0 0.0
2017-Nov-09 15:30N 39°16' W 076°34'0 0.0
2017-Nov-09 15:00N 39°16' W 076°34'0 0.0
2017-Nov-09 14:30N 39°16' W 076°34'0 0.0
2017-Nov-09 14:00N 39°16' W 076°34'0 0.0
2017-Nov-09 13:30N 39°16' W 076°34'0 0.0
2017-Nov-09 13:00N 39°16' W 076°34'0 0.0
2017-Nov-09 12:30N 39°16' W 076°34'1 2.3
2017-Nov-09 11:59N 39°15' W 076°33'1 2.5
2017-Nov-09 11:30N 39°14' W 076°33'1 1.4
2017-Nov-09 11:00N 39°14' W 076°32'0 0.0
2017-Nov-09 09:20N 39°14' W 076°32'1 3.1
2017-Nov-09 09:00N 39°15' W 076°32'1 1.7
2017-Nov-09 08:31N 39°15' W 076°33'1 2.9
2017-Nov-09 08:00N 39°13' W 076°32'2 3.6
2017-Nov-09 07:31N 39°13' W 076°34'0 0.7
2017-Nov-09 07:00N 39°13' W 076°35'0 0.0
2017-Nov-09 06:30N 39°13' W 076°35'2 3.2
2017-Nov-09 06:00N 39°14' W 076°33'1 1.8
2017-Nov-09 05:28N 39°15' W 076°33'1 2.5
2017-Nov-09 05:01N 39°16' W 076°34'0 0.0
2017-Nov-09 04:31N 39°16' W 076°34'0 0.0
2017-Nov-09 04:01N 39°16' W 076°34'0 0.0
2017-Nov-09 03:31N 39°16' W 076°34'0 0.0
2017-Nov-09 03:00N 39°16' W 076°34'0 0.0
2017-Nov-09 02:30N 39°16' W 076°34'0 0.0
2017-Nov-09 02:00N 39°16' W 076°34'0 0.0
2017-Nov-09 01:30N 39°16' W 076°34'0 0.0
2017-Nov-09 01:01N 39°16' W 076°34'  
Track history (hours):
 
Tides and Currents Weather Stations Pressure Air Temp Water Temp Dewpoint Dewpoint Depression Visibility Wind Speed Wind Dir Waves Ship Positions

April Moran

Owner: Moran Towing Corporation, New Canaan, CT. More information available from US FCC via Universal Licensing System and Coast Guard Vessel Documentation Center.

Last reported at 2017-Nov-19 01:00 UTC. Time now 2017-Nov-19 01:18 UTC.
Position N 39°16' W 076°34'.

Length 29 m; draft 3.9 m.

Type: Tug. MMSI: 367139510.

Date/timePositionNaut miles runAvg speedWind from/ knotsBaromVisibWave heightAir tempDewpointWater temp
2017-Nov-19 01:00N 39°16' W 076°34'0 0.0
2017-Nov-19 00:30N 39°16' W 076°34'2 3.6
2017-Nov-19 00:00N 39°15' W 076°32'2 3.3
2017-Nov-18 23:30N 39°14' W 076°32'2 3.2
2017-Nov-18 23:00N 39°15' W 076°34'1 2.4
2017-Nov-18 22:30N 39°16' W 076°34'0 0.0
2017-Nov-18 22:00N 39°16' W 076°34'0 0.0
2017-Nov-18 21:30N 39°16' W 076°34'0 0.0
2017-Nov-18 21:00N 39°16' W 076°34'0 0.0
2017-Nov-18 20:30N 39°16' W 076°34'0 0.0
2017-Nov-18 20:00N 39°16' W 076°34'0 0.0
2017-Nov-18 19:30N 39°16' W 076°34'0 0.0
2017-Nov-18 19:00N 39°16' W 076°34'0 0.0
2017-Nov-18 18:30N 39°16' W 076°34'0 0.0
2017-Nov-18 18:00N 39°16' W 076°34'0 0.0
2017-Nov-18 17:30N 39°16' W 076°34'0 0.0
2017-Nov-18 17:00N 39°16' W 076°34'0 0.0
2017-Nov-18 16:30N 39°16' W 076°34'0 0.5
2017-Nov-18 16:00N 39°16' W 076°34'0 1.0
2017-Nov-18 15:31N 39°15' W 076°34'2 3.5
2017-Nov-18 15:00N 39°14' W 076°33'2 3.0
2017-Nov-18 14:30N 39°15' W 076°34'1 1.7
2017-Nov-18 14:00N 39°16' W 076°34'0 0.0
2017-Nov-18 13:30N 39°16' W 076°34'0 0.0
2017-Nov-18 13:00N 39°16' W 076°34'0 0.0
2017-Nov-18 12:30N 39°16' W 076°34'0 0.0
2017-Nov-18 12:00N 39°16' W 076°34'0 0.0
2017-Nov-18 11:30N 39°16' W 076°34'1 1.8
2017-Nov-18 11:00N 39°15' W 076°35'1 1.3
2017-Nov-18 10:30N 39°15' W 076°34'0 0.6
2017-Nov-18 10:00N 39°15' W 076°34'0 0.9
2017-Nov-18 09:30N 39°15' W 076°34'0 0.0
2017-Nov-18 09:00N 39°15' W 076°34'0 0.0
2017-Nov-18 08:30N 39°15' W 076°34'0 0.0
2017-Nov-18 08:00N 39°15' W 076°34'0 0.0
2017-Nov-18 07:30N 39°15' W 076°34'1 1.6
2017-Nov-18 07:00N 39°15' W 076°35'2 3.4
2017-Nov-18 06:30N 39°14' W 076°33'1 1.1
2017-Nov-18 06:00N 39°14' W 076°32'0 0.0
2017-Nov-18 05:30N 39°14' W 076°32'0 0.0
2017-Nov-18 05:00N 39°14' W 076°32'0 0.0
2017-Nov-18 04:30N 39°14' W 076°32'0 0.7
2017-Nov-18 04:00N 39°14' W 076°32'3 4.8
2017-Nov-18 03:27N 39°13' W 076°35'0 0.1
2017-Nov-18 02:59N 39°13' W 076°35'2 4.0
2017-Nov-18 02:28N 39°13' W 076°32'0 0.5
2017-Nov-18 02:00N 39°13' W 076°32'1 2.6
2017-Nov-18 01:30N 39°15' W 076°32'0 0.0
2017-Nov-18 01:00N 39°15' W 076°32'0 0.0
2017-Nov-18 00:30N 39°15' W 076°32'0 0.8
2017-Nov-18 00:01N 39°15' W 076°32'4 7.3
2017-Nov-17 23:30N 39°12' W 076°30'1 2.2
2017-Nov-17 22:59N 39°13' W 076°29'0 0.2
2017-Nov-17 22:30N 39°13' W 076°29'0 0.1
2017-Nov-17 21:58N 39°13' W 076°29'0 0.0
2017-Nov-17 21:19N 39°13' W 076°29'0 0.0
2017-Nov-17 20:56N 39°13' W 076°29'1 1.2
2017-Nov-17 20:26N 39°12' W 076°29'1 1.7
2017-Nov-17 20:00N 39°11' W 076°29'1 2.1
2017-Nov-17 19:29N 39°11' W 076°27'3 5.0
2017-Nov-17 18:58N 39°12' W 076°30'4 9.5
2017-Nov-17 18:30N 39°15' W 076°34'1 1.1
2017-Nov-17 18:00N 39°16' W 076°34'0 0.0
2017-Nov-17 17:30N 39°16' W 076°34'0 0.0
2017-Nov-17 17:00N 39°16' W 076°34'0 0.0
2017-Nov-17 16:30N 39°16' W 076°34'0 0.0
2017-Nov-17 16:00N 39°16' W 076°34'0 0.0
2017-Nov-17 15:30N 39°16' W 076°34'0 0.0
2017-Nov-17 15:00N 39°16' W 076°34'0 0.0
2017-Nov-17 14:30N 39°16' W 076°34'0 0.0
2017-Nov-17 14:00N 39°16' W 076°34'0 0.0
2017-Nov-17 13:30N 39°16' W 076°34'0 0.0
2017-Nov-17 13:00N 39°16' W 076°34'0 0.0
2017-Nov-17 12:30N 39°16' W 076°34'0 0.0
2017-Nov-17 12:00N 39°16' W 076°34'0 0.0
2017-Nov-17 11:30N 39°16' W 076°34'0 0.0
2017-Nov-17 11:00N 39°16' W 076°34'0 0.0
2017-Nov-17 10:30N 39°16' W 076°34'0 0.2
2017-Nov-17 10:00N 39°16' W 076°34'0 0.2
2017-Nov-17 09:30N 39°16' W 076°34'0 0.0
2017-Nov-17 09:00N 39°16' W 076°34'2 4.1
2017-Nov-17 08:30N 39°15' W 076°32'1 1.1
2017-Nov-17 08:00N 39°14' W 076°32'0 0.0
2017-Nov-17 07:30N 39°14' W 076°32'0 0.7
2017-Nov-17 07:00N 39°14' W 076°32'0 0.0
2017-Nov-17 06:30N 39°14' W 076°32'0 0.7
2017-Nov-17 05:52N 39°15' W 076°32'0 1.1
2017-Nov-17 05:30N 39°15' W 076°33'0 0.7
2017-Nov-17 05:00N 39°15' W 076°32'1 1.5
2017-Nov-17 04:30N 39°15' W 076°31'1 1.3
2017-Nov-17 04:00N 39°14' W 076°32'1 1.9
2017-Nov-17 03:30N 39°15' W 076°32'0 0.1
2017-Nov-17 03:00N 39°15' W 076°32'0 0.0
2017-Nov-17 02:29N 39°15' W 076°32'0 0.0
2017-Nov-17 02:00N 39°15' W 076°32'0 0.0
2017-Nov-17 01:30N 39°15' W 076°32'0 0.1
2017-Nov-17 01:01N 39°15' W 076°32'2 4.0
2017-Nov-17 00:30N 39°13' W 076°32'2 3.8
2017-Nov-17 00:00N 39°15' W 076°33'1 2.2
2017-Nov-16 23:31N 39°15' W 076°35'1 1.7
2017-Nov-16 23:00N 39°15' W 076°34'1 1.6
2017-Nov-16 22:30N 39°15' W 076°34'1 1.3
2017-Nov-16 22:00N 39°16' W 076°34'0 0.0
2017-Nov-16 21:30N 39°16' W 076°34'0 0.0
2017-Nov-16 21:00N 39°16' W 076°34'0 0.0
2017-Nov-16 20:30N 39°16' W 076°34'0 0.0
2017-Nov-16 20:00N 39°16' W 076°34'1 2.1
2017-Nov-16 19:30N 39°15' W 076°33'1 1.5
2017-Nov-16 19:00N 39°15' W 076°32'1 1.8
2017-Nov-16 18:24N 39°15' W 076°33'1 3.0
2017-Nov-16 18:00N 39°15' W 076°35'0 0.1
2017-Nov-16 17:30N 39°15' W 076°35'1 2.5
2017-Nov-16 17:00N 39°15' W 076°33'1 1.1
2017-Nov-16 16:30N 39°15' W 076°33'0 1.0
2017-Nov-16 16:00N 39°15' W 076°33'2 3.1
2017-Nov-16 15:30N 39°13' W 076°32'3 6.6
2017-Nov-16 15:00N 39°16' W 076°34'0 0.0
2017-Nov-16 14:30N 39°16' W 076°34'0 0.0
2017-Nov-16 14:00N 39°16' W 076°34'0 0.0
2017-Nov-16 13:30N 39°16' W 076°34'0 0.0
2017-Nov-16 13:00N 39°16' W 076°34'0 0.0
2017-Nov-16 12:30N 39°16' W 076°34'0 0.0
2017-Nov-16 12:00N 39°16' W 076°34'0 0.0
2017-Nov-16 11:30N 39°16' W 076°34'0 0.0
2017-Nov-16 11:00N 39°16' W 076°34'0 0.0
2017-Nov-16 10:30N 39°16' W 076°34'0 0.0
2017-Nov-16 10:00N 39°16' W 076°34'0 0.0
2017-Nov-16 09:30N 39°16' W 076°34'0 0.0
2017-Nov-16 09:00N 39°16' W 076°34'1 2.6
2017-Nov-16 08:30N 39°15' W 076°33'1 1.9
2017-Nov-16 08:00N 39°14' W 076°33'1 2.2
2017-Nov-16 07:30N 39°15' W 076°34'0 0.7
2017-Nov-16 07:01N 39°15' W 076°34'1 2.5
2017-Nov-16 06:30N 39°14' W 076°32'0 0.1
2017-Nov-16 06:00N 39°14' W 076°33'2 4.0
2017-Nov-16 05:30N 39°15' W 076°34'0 0.0
2017-Nov-16 05:00N 39°15' W 076°34'0 0.0
2017-Nov-16 04:30N 39°15' W 076°34'0 0.0
2017-Nov-16 04:00N 39°15' W 076°34'0 0.0
2017-Nov-16 03:28N 39°15' W 076°34'0 0.0
2017-Nov-16 03:00N 39°15' W 076°34'1 1.1
2017-Nov-16 02:30N 39°15' W 076°33'0 0.1
2017-Nov-16 02:00N 39°15' W 076°33'1 2.2
2017-Nov-16 01:31N 39°16' W 076°34'0 0.2
2017-Nov-16 01:00N 39°16' W 076°34'0 0.0
2017-Nov-16 00:30N 39°16' W 076°34'0 0.0
2017-Nov-16 00:00N 39°16' W 076°34'0 0.0
2017-Nov-15 23:30N 39°16' W 076°34'0 0.0
2017-Nov-15 23:00N 39°16' W 076°34'0 0.0
2017-Nov-15 22:30N 39°16' W 076°34'0 0.0
2017-Nov-15 22:00N 39°16' W 076°34'0 0.0
2017-Nov-15 21:30N 39°16' W 076°34'0 0.0
2017-Nov-15 21:00N 39°16' W 076°34'0 0.0
2017-Nov-15 20:30N 39°16' W 076°34'0 0.0
2017-Nov-15 20:00N 39°16' W 076°34'1 1.0
2017-Nov-15 19:30N 39°16' W 076°35'1 1.0
2017-Nov-15 19:00N 39°16' W 076°34'0 0.0
2017-Nov-15 18:30N 39°16' W 076°34'0 0.0
2017-Nov-15 18:00N 39°16' W 076°34'0 0.0
2017-Nov-15 17:30N 39°16' W 076°34'0 0.0
2017-Nov-15 17:01N 39°16' W 076°34'1 2.4
2017-Nov-15 16:31N 39°15' W 076°33'2 4.0
2017-Nov-15 16:00N 39°13' W 076°32'2 4.3
2017-Nov-15 15:30N 39°15' W 076°34'1 1.8
2017-Nov-15 15:00N 39°16' W 076°34'0 0.0
2017-Nov-15 14:30N 39°16' W 076°34'0 0.0
2017-Nov-15 14:00N 39°16' W 076°34'0 0.0
2017-Nov-15 13:31N 39°16' W 076°34'0 0.0
2017-Nov-15 13:00N 39°16' W 076°34'0 0.0
2017-Nov-15 12:31N 39°16' W 076°34'0 0.0
2017-Nov-15 12:00N 39°16' W 076°34'0 0.0
2017-Nov-15 11:30N 39°16' W 076°34'0 0.0
2017-Nov-15 11:00N 39°16' W 076°34'0 0.0
2017-Nov-15 10:30N 39°16' W 076°34'0 0.0
2017-Nov-15 10:00N 39°16' W 076°34'0 0.0
2017-Nov-15 09:31N 39°16' W 076°34'0 0.0
2017-Nov-15 09:01N 39°16' W 076°34'0 0.0
2017-Nov-15 08:30N 39°16' W 076°34'0 0.0
2017-Nov-15 08:00N 39°16' W 076°34'0 0.0
2017-Nov-15 07:30N 39°16' W 076°34'0 0.0
2017-Nov-15 07:00N 39°16' W 076°34'0 0.0
2017-Nov-15 06:30N 39°16' W 076°34'0 0.0
2017-Nov-15 06:00N 39°16' W 076°34'0 0.0
2017-Nov-15 05:30N 39°16' W 076°34'0 0.0
2017-Nov-15 05:00N 39°16' W 076°34'0 0.0
2017-Nov-15 04:30N 39°16' W 076°34'0 0.0
2017-Nov-15 04:00N 39°16' W 076°34'0 0.0
2017-Nov-15 03:30N 39°16' W 076°34'0 0.0
2017-Nov-15 03:00N 39°16' W 076°34'0 0.0
2017-Nov-15 02:30N 39°16' W 076°34'0 0.0
2017-Nov-15 02:01N 39°16' W 076°34'0 0.0
2017-Nov-15 01:31N 39°16' W 076°34'0 0.0
2017-Nov-15 01:00N 39°16' W 076°34'1 1.5
2017-Nov-15 00:30N 39°15' W 076°34'1 1.7
2017-Nov-15 00:00N 39°15' W 076°33'0 0.3
2017-Nov-14 23:28N 39°15' W 076°33'2 3.3
2017-Nov-14 23:00N 39°16' W 076°34'0 0.0
2017-Nov-14 22:30N 39°16' W 076°34'0 0.0
2017-Nov-14 22:00N 39°16' W 076°34'0 0.0
2017-Nov-14 21:30N 39°16' W 076°34'0 0.0
2017-Nov-14 21:00N 39°16' W 076°34'0 0.0
2017-Nov-14 20:30N 39°16' W 076°34'0 0.0
2017-Nov-14 20:00N 39°16' W 076°34'0 0.0
2017-Nov-14 19:30N 39°16' W 076°34'0 0.0
2017-Nov-14 19:00N 39°16' W 076°34'0 0.0
2017-Nov-14 18:30N 39°16' W 076°34'0 0.0
2017-Nov-14 18:00N 39°16' W 076°34'0 0.0
2017-Nov-14 17:30N 39°16' W 076°34'0 0.0
2017-Nov-14 17:00N 39°16' W 076°34'0 0.0
2017-Nov-14 16:30N 39°16' W 076°34'0 0.0
2017-Nov-14 16:00N 39°16' W 076°34'0 0.0
2017-Nov-14 15:30N 39°16' W 076°34'0 0.0
2017-Nov-14 15:00N 39°16' W 076°34'0 0.0
2017-Nov-14 14:30N 39°16' W 076°34'0 0.0
2017-Nov-14 14:00N 39°16' W 076°34'1 2.1
2017-Nov-14 13:30N 39°15' W 076°34'2 3.1
2017-Nov-14 12:58N 39°13' W 076°34'0 1.0
2017-Nov-14 12:30N 39°13' W 076°34'0 0.1
2017-Nov-14 11:58N 39°13' W 076°35'1 3.3
2017-Nov-14 11:30N 39°14' W 076°33'1 2.5
2017-Nov-14 11:00N 39°15' W 076°33'2 3.1
2017-Nov-14 10:26N 39°14' W 076°32'0 0.8
2017-Nov-14 10:00N 39°13' W 076°32'2 3.7
2017-Nov-14 09:30N 39°15' W 076°34'1 2.4
2017-Nov-14 09:01N 39°16' W 076°34'0 0.0
2017-Nov-14 08:31N 39°16' W 076°34'0 0.0
2017-Nov-14 08:01N 39°16' W 076°34'0 0.0
2017-Nov-14 07:30N 39°16' W 076°34'0 0.0
2017-Nov-14 07:01N 39°16' W 076°34'0 0.0
2017-Nov-14 06:30N 39°16' W 076°34'0 0.0
2017-Nov-14 06:01N 39°16' W 076°34'0 0.0
2017-Nov-14 05:31N 39°16' W 076°34'0 0.0
2017-Nov-14 05:01N 39°16' W 076°34'0 0.0
2017-Nov-14 04:30N 39°16' W 076°34'0 0.0
2017-Nov-14 04:01N 39°16' W 076°34'0 0.0
2017-Nov-14 03:31N 39°16' W 076°34'0 0.0
2017-Nov-14 03:00N 39°16' W 076°34'0 0.0
2017-Nov-14 02:30N 39°16' W 076°34'0 0.0
2017-Nov-14 02:01N 39°16' W 076°34'0 0.0
2017-Nov-14 01:31N 39°16' W 076°34'0 0.0
2017-Nov-14 01:00N 39°16' W 076°34'0 0.0
2017-Nov-14 00:31N 39°16' W 076°34'0 0.0
2017-Nov-14 00:01N 39°16' W 076°34'0 0.0
2017-Nov-13 23:31N 39°16' W 076°34'1 2.8
2017-Nov-13 23:00N 39°15' W 076°34'1 2.8
2017-Nov-13 22:30N 39°16' W 076°34'0 0.0
2017-Nov-13 22:00N 39°16' W 076°34'2 0.1
2017-Nov-13 02:01N 39°14' W 076°32'0 0.8
2017-Nov-13 01:30N 39°14' W 076°32'0 0.0
2017-Nov-13 01:01N 39°14' W 076°32'0 0.0
2017-Nov-13 00:31N 39°14' W 076°32'2 4.6
2017-Nov-13 00:01N 39°16' W 076°34'0 0.2
2017-Nov-12 23:31N 39°16' W 076°34'1 2.2
2017-Nov-12 23:01N 39°15' W 076°34'1 2.8
2017-Nov-12 22:30N 39°16' W 076°34'0 0.0
2017-Nov-12 22:00N 39°16' W 076°34'0 0.0
2017-Nov-12 21:30N 39°16' W 076°34'0 0.0
2017-Nov-12 21:00N 39°16' W 076°34'0 0.0
2017-Nov-12 20:30N 39°16' W 076°34'0 0.0
2017-Nov-12 20:00N 39°16' W 076°34'0 0.0
2017-Nov-12 19:30N 39°16' W 076°34'0 0.0
2017-Nov-12 19:00N 39°16' W 076°34'0 0.8
2017-Nov-12 18:30N 39°16' W 076°34'2 4.4
2017-Nov-12 18:00N 39°14' W 076°32'0 0.5
2017-Nov-12 17:30N 39°14' W 076°32'4 7.0
2017-Nov-12 17:00N 39°17' W 076°36'0 0.1
2017-Nov-12 16:30N 39°17' W 076°36'1 2.4
2017-Nov-12 16:00N 39°16' W 076°34'0 0.0
2017-Nov-12 15:30N 39°16' W 076°34'0 0.0
2017-Nov-12 15:00N 39°16' W 076°34'0 0.0
2017-Nov-12 14:30N 39°16' W 076°34'3 5.1
2017-Nov-12 14:00N 39°13' W 076°35'0 0.0
2017-Nov-12 13:30N 39°13' W 076°35'1 2.2
2017-Nov-12 13:00N 39°13' W 076°33'1 2.0
2017-Nov-12 12:30N 39°14' W 076°32'0 0.9
2017-Nov-12 12:00N 39°14' W 076°32'0 0.0
2017-Nov-12 11:30N 39°14' W 076°32'1 1.3
2017-Nov-12 11:00N 39°15' W 076°32'2 3.3
2017-Nov-12 10:30N 39°13' W 076°32'2 3.5
2017-Nov-12 10:01N 39°13' W 076°34'0 0.8
2017-Nov-12 09:30N 39°13' W 076°35'0 0.1
2017-Nov-12 08:48N 39°13' W 076°35'2 8.1
2017-Nov-12 08:31N 39°14' W 076°32'0 0.8
2017-Nov-12 08:00N 39°14' W 076°32'1 1.0
2017-Nov-12 07:30N 39°14' W 076°32'2 3.3
2017-Nov-12 07:00N 39°15' W 076°34'0 0.3
2017-Nov-12 06:30N 39°15' W 076°34'1 2.7
2017-Nov-12 06:00N 39°14' W 076°32'0 0.1
2017-Nov-12 05:30N 39°14' W 076°32'1 1.9
2017-Nov-12 05:00N 39°15' W 076°32'2 4.0
2017-Nov-12 04:31N 39°16' W 076°34'0 0.0
2017-Nov-12 04:00N 39°16' W 076°34'0 0.0
2017-Nov-12 03:31N 39°16' W 076°34'0 0.0
2017-Nov-12 03:00N 39°16' W 076°34'0 0.0
2017-Nov-12 02:30N 39°16' W 076°34'0 0.0
2017-Nov-12 02:01N 39°16' W 076°34'0 0.0
2017-Nov-12 01:30N 39°16' W 076°34'3 7.0
2017-Nov-12 01:01N 39°13' W 076°32'2 4.4
2017-Nov-12 00:30N 39°13' W 076°29'0 1.0
2017-Nov-12 00:01N 39°12' W 076°29'0 0.2
2017-Nov-11 23:30N 39°12' W 076°29'0 0.0
2017-Nov-11 23:00N 39°12' W 076°29'0 0.0
2017-Nov-11 22:30N 39°12' W 076°29'4 8.3
2017-Nov-11 22:00N 39°15' W 076°32'1 1.9
2017-Nov-11 21:30N 39°14' W 076°33'2 3.3
2017-Nov-11 21:00N 39°15' W 076°35'1 1.1
2017-Nov-11 20:30N 39°15' W 076°34'0 0.5
2017-Nov-11 20:00N 39°15' W 076°34'0 0.6
2017-Nov-11 19:31N 39°16' W 076°34'0 0.1
2017-Nov-11 19:00N 39°16' W 076°34'0 0.0
2017-Nov-11 18:30N 39°16' W 076°34'2 3.5
2017-Nov-11 18:00N 39°15' W 076°32'1 2.2
2017-Nov-11 17:28N 39°13' W 076°32'3 6.6
2017-Nov-11 17:00N 39°16' W 076°34'0 0.0
2017-Nov-11 16:30N 39°16' W 076°34'0 0.0
2017-Nov-11 16:00N 39°16' W 076°34'0 0.0
2017-Nov-11 15:30N 39°16' W 076°34'0 0.0
2017-Nov-11 15:00N 39°16' W 076°34'0 0.0
2017-Nov-11 14:30N 39°16' W 076°34'0 0.0
2017-Nov-11 14:00N 39°16' W 076°34'0 0.0
2017-Nov-11 13:30N 39°16' W 076°34'0 0.0
2017-Nov-11 13:00N 39°16' W 076°34'0 0.0
2017-Nov-11 12:30N 39°16' W 076°34'0 0.1
2017-Nov-11 12:01N 39°16' W 076°34'1 2.8
2017-Nov-11 11:30N 39°15' W 076°33'2 3.7
2017-Nov-11 11:00N 39°13' W 076°32'1 2.0
2017-Nov-11 10:30N 39°14' W 076°32'1 1.6
2017-Nov-11 10:00N 39°15' W 076°33'0 0.5
2017-Nov-11 09:30N 39°15' W 076°32'0 0.0
2017-Nov-11 09:00N 39°15' W 076°32'0 0.0
2017-Nov-11 08:29N 39°15' W 076°32'0 0.0
2017-Nov-11 08:00N 39°15' W 076°32'0 0.0
2017-Nov-11 07:30N 39°15' W 076°32'2 3.4
2017-Nov-11 07:00N 39°15' W 076°34'0 0.2
2017-Nov-11 06:30N 39°15' W 076°35'1 1.6
2017-Nov-11 06:00N 39°15' W 076°34'0 0.7
2017-Nov-11 05:31N 39°15' W 076°34'0 0.0
2017-Nov-11 05:00N 39°15' W 076°34'1 3.0
2017-Nov-11 04:31N 39°14' W 076°32'1 2.0
2017-Nov-11 04:00N 39°15' W 076°33'1 2.2
2017-Nov-11 03:27N 39°15' W 076°35'0 0.0
2017-Nov-11 03:00N 39°15' W 076°35'1 2.5
2017-Nov-11 02:31N 39°16' W 076°35'0 0.4
2017-Nov-11 02:00N 39°16' W 076°35'1 1.2
2017-Nov-11 01:30N 39°16' W 076°34'0 0.0
2017-Nov-11 01:00N 39°16' W 076°34'0 0.0
2017-Nov-11 00:31N 39°16' W 076°34'0 0.0
2017-Nov-11 00:00N 39°16' W 076°34'0 0.0
2017-Nov-10 23:31N 39°16' W 076°34'0 0.0
2017-Nov-10 23:01N 39°16' W 076°34'0 0.0
2017-Nov-10 22:30N 39°16' W 076°34'0 0.0
2017-Nov-10 22:01N 39°16' W 076°34'0 0.0
2017-Nov-10 21:31N 39°16' W 076°34'0 0.0
2017-Nov-10 21:01N 39°16' W 076°34'0 0.0
2017-Nov-10 20:31N 39°16' W 076°34'0 0.0
2017-Nov-10 20:00N 39°16' W 076°34'0 0.0
2017-Nov-10 19:30N 39°16' W 076°34'1 2.0
2017-Nov-10 19:00N 39°15' W 076°35'0 1.0
2017-Nov-10 18:30N 39°15' W 076°34'2 3.9
2017-Nov-10 18:00N 39°14' W 076°32'0 0.2
2017-Nov-10 17:30N 39°14' W 076°32'0 0.0
2017-Nov-10 17:00N 39°14' W 076°32'2 3.2
2017-Nov-10 16:30N 39°15' W 076°34'0 0.7
2017-Nov-10 16:01N 39°15' W 076°34'2 4.1
2017-Nov-10 15:30N 39°13' W 076°32'0 0.6
2017-Nov-10 15:00N 39°13' W 076°32'2 3.6
2017-Nov-10 14:29N 39°13' W 076°35'0 0.9
2017-Nov-10 14:00N 39°13' W 076°34'2 4.9
2017-Nov-10 13:30N 39°12' W 076°31'2 4.0
2017-Nov-10 13:00N 39°14' W 076°32'0 0.0
2017-Nov-10 12:30N 39°14' W 076°32'0 0.0
2017-Nov-10 12:00N 39°14' W 076°32'1 1.5
2017-Nov-10 11:30N 39°15' W 076°33'1 1.2
2017-Nov-10 11:00N 39°14' W 076°33'0 0.9
2017-Nov-10 10:30N 39°14' W 076°32'0 0.0
2017-Nov-10 10:00N 39°14' W 076°32'0 0.0
2017-Nov-10 09:30N 39°14' W 076°32'0 0.0
2017-Nov-10 09:00N 39°14' W 076°32'0 0.0
2017-Nov-10 08:30N 39°14' W 076°32'0 0.0
2017-Nov-10 07:58N 39°14' W 076°32'0 0.0
2017-Nov-10 07:29N 39°14' W 076°32'0 0.0
2017-Nov-10 06:50N 39°14' W 076°32'0 0.0
2017-Nov-10 06:29N 39°14' W 076°32'0 0.0
2017-Nov-10 05:11N 39°14' W 076°32'1 7.1
2017-Nov-10 05:00N 39°15' W 076°33'0 0.9
2017-Nov-10 04:30N 39°15' W 076°33'1 0.6
2017-Nov-10 03:37N 39°15' W 076°32'0 0.0
2017-Nov-10 03:27N 39°15' W 076°32'0 0.0
2017-Nov-10 03:00N 39°15' W 076°32'0 0.0
2017-Nov-10 02:29N 39°15' W 076°32'4 7.7
2017-Nov-10 01:57N 39°12' W 076°29'0 0.2
2017-Nov-10 01:20N 39°12' W 076°29'1 2.0
2017-Nov-10 01:00N 39°11' W 076°28'3 5.4
2017-Nov-10 00:30N 39°13' W 076°31'4 7.0
2017-Nov-10 00:00N 39°15' W 076°34'0 0.6
2017-Nov-09 23:30N 39°15' W 076°34'1 2.1
2017-Nov-09 23:00N 39°14' W 076°33'1 1.2
2017-Nov-09 22:30N 39°15' W 076°32'0 0.2
2017-Nov-09 22:00N 39°15' W 076°32'0 0.8
2017-Nov-09 21:30N 39°15' W 076°32'0 0.3
2017-Nov-09 21:00N 39°15' W 076°32'0 0.0
2017-Nov-09 20:30N 39°15' W 076°32'2 3.5
2017-Nov-09 20:00N 39°16' W 076°34'0 0.0
2017-Nov-09 19:30N 39°16' W 076°34'0 0.0
2017-Nov-09 19:00N 39°16' W 076°34'0 0.0
2017-Nov-09 18:30N 39°16' W 076°34'0 0.0
2017-Nov-09 18:00N 39°16' W 076°34'0 0.0
2017-Nov-09 17:30N 39°16' W 076°34'0 0.0
2017-Nov-09 17:00N 39°16' W 076°34'0 0.0
2017-Nov-09 16:30N 39°16' W 076°34'0 0.0
2017-Nov-09 16:00N 39°16' W 076°34'0 0.0
2017-Nov-09 15:30N 39°16' W 076°34'0 0.0
2017-Nov-09 15:00N 39°16' W 076°34'0 0.0
2017-Nov-09 14:30N 39°16' W 076°34'0 0.0
2017-Nov-09 14:00N 39°16' W 076°34'0 0.0
2017-Nov-09 13:30N 39°16' W 076°34'0 0.0
2017-Nov-09 13:00N 39°16' W 076°34'0 0.0
2017-Nov-09 12:30N 39°16' W 076°34'1 2.3
2017-Nov-09 11:59N 39°15' W 076°33'1 2.5
2017-Nov-09 11:30N 39°14' W 076°33'1 1.4
2017-Nov-09 11:00N 39°14' W 076°32'0 0.0
2017-Nov-09 09:20N 39°14' W 076°32'1 3.1
2017-Nov-09 09:00N 39°15' W 076°32'1 1.7
2017-Nov-09 08:31N 39°15' W 076°33'1 2.9
2017-Nov-09 08:00N 39°13' W 076°32'2 3.6
2017-Nov-09 07:31N 39°13' W 076°34'0 0.7
2017-Nov-09 07:00N 39°13' W 076°35'0 0.0
2017-Nov-09 06:30N 39°13' W 076°35'2 3.2
2017-Nov-09 06:00N 39°14' W 076°33'1 1.8
2017-Nov-09 05:28N 39°15' W 076°33'1 2.5
2017-Nov-09 05:01N 39°16' W 076°34'0 0.0
2017-Nov-09 04:31N 39°16' W 076°34'0 0.0
2017-Nov-09 04:01N 39°16' W 076°34'0 0.0
2017-Nov-09 03:31N 39°16' W 076°34'0 0.0
2017-Nov-09 03:00N 39°16' W 076°34'0 0.0
2017-Nov-09 02:30N 39°16' W 076°34'0 0.0
2017-Nov-09 02:00N 39°16' W 076°34'0 0.0
2017-Nov-09 01:30N 39°16' W 076°34'0 0.0
2017-Nov-09 01:01N 39°16' W 076°34'  

Dump ship's entire track history